Карточка аэропорта UWGG

Внимание!
Информация на этой странице в стадии наполнения.
Если вы не увидели какой-то информации, или заметили неточность - пожалуйста сообщите нам!
Спасибо!
Команда RU-STAFF
Название аэропортаСтригино
Название аэропорта (англ.)Strigino
Превышение256 ft. (78 m.)
Координаты56°13.8', 43°47.202'
Высота перехода5000 ft
Эшелон переходаQNH>=1013hPa:FL060; QNH<1013hPa:FL070; QNH<977hPa:FL080
Коды ответчика2120-2147
Зона ОрВДМосква РПИ (UUWV)
Данные METARUWGG 041200Z 12002MPS 090V160 9999 -SN OVC013 M01/M03 Q1019 R18L/490040 NOSIG
Проноз погоды (TAF)UWGG 041055Z 0412/0512 15003MPS 6000 -SN OVC011 TXM00/0412Z TNM06/0503Z TEMPO 0412/0509 1000 SHSN BKN005 BKN010CB
NOTAMshow/hide NOTAM
AWOS   TABLE

Информация о ВПП

ВПП Длина ВПП (м.) Покрытие Курс ВПП Частота ILS
36R3000Цементобетон359110.5
36L2806Асфальтобетон359109.5
18L3000Цементобетон179108.1
18R2806Асфальтобетон179109.9

Диспетчерские позиции

Позывной Наименование органа УВД Частота
UWGG_TWRНижний-Вышка120.400
UWGG_R_APPНижний-Круг120.800
UWGG_GNDНижний-Руление121.800
UWGG_APPНижний-Подход124.700



Спутниковое изображение